Terminal Aerodrome Forecast
Issued by NWS

Home | Current Version | Previous Version | Text Only | Print | Product List | Glossary On
Versions: 1 2 3 4 5 6 7 8 9 10 11 12 13 14 15 16 17 18
000
FTUS42 KRAH 281124
TAFRWI
TAF
KRWI 281124Z 2812/2912 20008KT P6SM BKN110
      TEMPO 2813/2815 5SM -SHRA BKN035
     FM281700 24010G17KT P6SM SCT040 BKN250
      TEMPO 2821/2901 24010G25KT 5SM TSRA BKN050CB
     FM290100 28005KT P6SM SKC=

USA.gov is the U.S. government's official web portal to all federal, state and local government web resources and services.